Terminal Aerodrome Forecast
Issued by NWS Louisville, KY

Home | Current Version | Previous Version | Text Only | Print | Product List | Glossary On
Versions: 1 2 3 4 5 6 7 8 9 10 11 12 13 14 15 16 17 18 19 20 21 22
000
FTUS43 KLMK 281600 AAA
TAFBWG
TAF AMD
KBWG 281628Z 2816/2912 20006KT P6SM VCTS SCT040CB BKN250
      TEMPO 2816/2818 VRB10G20KT 3SM -TSRA BKN025CB
     FM290100 VRB03KT P6SM SCT080 BKN250
     FM290500 00000KT 4SM BR SCT250=

USA.gov is the U.S. government's official web portal to all federal, state and local government web resources and services.